Latest Weather Observations for Dartmoor

IDV60801

Issued at 3:35 pm EST Wednesday 23 July 2014 (issued every 30 minutes, with the page automatically refreshed every 10 minutes)

About weather observations | Map of weather stations | Latest weather observations for VIC | Other Formats
Station Details ID: 090194 Name: DARTMOOR Lat: -37.92 Lon: 141.26 Height: 51.0 m
Data from the previous 72 hours. | See also: Recent months at Dartmoor
Date/Time
EST
Temp
°C
App
Temp
°C
Dew
Point
Rel
Hum
%
Delta-T
°C
Wind Press
QNH
hPa
Press
MSL
hPa
Rain
since 9 am
mm
Dir
 
Spd
km/h
Gust
km/h
Spd
kts
Gust
kts
23/03:30pm 10.9 9.1 8.1 83 1.4 N 7 11 4 6 1017.7 - 0.0
23/03:00pm 10.7 8.9 7.8 82 1.4 NNE 7 11 4 6 1017.8 1017.9 0.0
23/02:30pm 10.4 8.2 7.8 84 1.3 NNE 9 17 5 9 1018.0 - 0.0
23/02:00pm 10.3 8.8 9.2 93 0.5 N 7 11 4 6 1018.2 1018.3 0.0
23/01:30pm 10.2 8.2 10.1 99 0.1 NE 11 17 6 9 1018.4 - 0.0
23/01:00pm 9.7 8.3 9.7 100 0.0 NNE 7 13 4 7 1019.2 1019.3 0.0
23/12:30pm 9.0 8.0 9.0 100 0.0 NNE 4 9 2 5 1019.6 - 0.0
23/12:00pm 7.5 6.9 7.5 100 0.0 CALM 0 0 0 0 1020.2 1020.3 0.0
23/11:30am 6.5 5.7 6.5 100 0.0 CALM 0 0 0 0 1020.8 - 0.0
23/11:00am 5.0 3.9 5.0 100 0.0 CALM 0 0 0 0 1021.3 1021.4 0.0
23/10:30am 3.7 2.3 3.7 100 0.0 CALM 0 0 0 0 1021.7 - 0.0
23/10:00am 2.5 0.9 2.5 100 0.0 CALM 0 0 0 0 1022.2 1022.3 0.0
23/09:30am 1.1 -0.7 1.1 100 0.0 CALM 0 0 0 0 1022.2 - 0.0
23/09:00am 0.3 -1.6 0.3 100 0.0 CALM 0 0 0 0 1022.5 1022.6 0.2
23/08:30am 0.5 -1.4 0.5 100 0.0 CALM 0 0 0 0 1022.6 - 0.2
23/08:00am 0.4 -2.3 0.4 100 0.0 NW 4 6 2 3 1022.4 1022.5 0.2
23/07:30am 0.7 -1.2 0.7 100 0.0 CALM 0 0 0 0 1022.3 - 0.2
23/07:00am -0.2 -2.2 -0.2 100 0.0 CALM 0 0 0 0 1022.0 1022.1 0.2
23/06:30am -0.6 -2.7 -0.6 100 0.0 CALM 0 0 0 0 1022.1 - 0.2
23/06:00am 0.1 -1.9 0.1 100 0.0 NE 0 0 0 0 1022.2 1022.3 0.2
23/05:30am 0.1 -1.9 0.1 100 0.0 CALM 0 0 0 0 1022.1 - 0.2
23/05:00am 0.6 -1.3 0.6 100 0.0 CALM 0 0 0 0 1022.2 1022.3 0.2
23/04:30am 0.7 -1.2 0.7 100 0.0 CALM 0 0 0 0 1022.3 - 0.2
23/04:00am 1.3 -1.2 1.3 100 0.0 NE 4 4 2 2 1022.4 1022.5 0.2
23/03:30am 1.5 -1.0 1.5 100 0.0 E 4 6 2 3 1022.2 - 0.2
23/03:00am 1.2 -1.7 1.2 100 0.0 E 6 6 3 3 1022.3 1022.4 0.2
23/02:30am 0.9 -2.1 0.9 100 0.0 E 6 6 3 3 1022.5 - 0.2
23/02:00am 1.8 -1.0 1.8 100 0.0 ENE 6 6 3 3 1022.9 1023.0 0.2
23/01:30am 1.7 -0.8 1.7 100 0.0 ENE 4 4 2 2 1023.0 - 0.2
23/01:00am 2.6 1.0 2.6 100 0.0 CALM 0 0 0 0 1023.0 1023.1 0.2
23/12:30am 2.2 0.6 2.2 100 0.0 CALM 0 4 0 2 1023.0 - 0.2
23/12:00am 3.1 0.9 3.1 100 0.0 NE 4 6 2 3 1023.5 1023.6 0.2
 
Date/Time
EST
Temp
°C
App
Temp
°C
Dew
Point
Rel
Hum
%
Delta-T
°C
Wind Press
QNH
hPa
Press
MSL
hPa
Rain
since 9 am
mm
Dir
 
Spd
km/h
Gust
km/h
Spd
kts
Gust
kts
22/11:30pm 3.3 1.1 3.3 100 0.0 E 4 6 2 3 1023.8 - 0.2
22/11:00pm 3.3 1.9 3.3 100 0.0 CALM 0 0 0 0 1024.2 1024.3 0.2
22/10:30pm 3.7 2.3 3.7 100 0.0 CALM 0 0 0 0 1024.3 - 0.2
22/10:00pm 3.6 2.2 3.6 100 0.0 CALM 0 0 0 0 1024.5 1024.6 0.2
22/09:30pm 4.4 3.2 4.4 100 0.0 CALM 0 0 0 0 1024.2 - 0.2
22/09:00pm 4.4 3.2 4.4 100 0.0 CALM 0 0 0 0 1023.9 1024.0 0.2
22/08:30pm 5.5 4.5 5.5 100 0.0 CALM 0 0 0 0 1023.7 - 0.2
22/08:00pm 6.4 5.6 6.4 100 0.0 CALM 0 0 0 0 1023.9 1024.0 0.2
22/07:30pm 6.3 5.5 6.3 100 0.0 CALM 0 0 0 0 1023.9 - 0.2
22/07:00pm 7.3 6.7 7.3 100 0.0 CALM 0 0 0 0 1023.9 1024.0 0.2
22/06:30pm 7.9 7.4 7.9 100 0.0 CALM 0 0 0 0 1023.8 - 0.2
22/06:00pm 8.6 8.3 8.5 99 0.0 CALM 0 0 0 0 1023.7 1023.8 0.2
22/05:30pm 10.4 10.1 8.7 89 0.8 CALM 0 0 0 0 1023.5 - 0.2
22/05:00pm 12.7 12.7 9.7 82 1.5 CALM 0 0 0 0 1023.2 1023.3 0.2
22/04:30pm 14.3 14.1 9.1 71 2.7 CALM 0 0 0 0 1023.2 - 0.2
22/04:00pm 14.0 13.6 8.4 69 2.8 CALM 0 0 0 0 1023.3 1023.4 0.2
22/03:30pm 14.2 12.7 8.6 69 2.8 NNW 6 7 3 4 1023.4 - 0.2
22/03:00pm 14.0 13.3 8.4 69 2.8 NNE 2 7 1 4 1023.5 1023.6 0.2
22/02:30pm 13.8 13.3 9.3 74 2.3 NE 2 7 1 4 1023.6 - 0.2
22/02:00pm 13.5 12.1 9.0 74 2.3 NNE 6 11 3 6 1023.7 1023.8 0.2
22/01:30pm 13.7 12.4 9.2 74 2.3 NNW 6 7 3 4 1024.0 - 0.2
22/01:00pm 13.0 12.8 9.1 77 2.0 CALM 0 0 0 0 1024.5 1024.6 0.2
22/12:30pm 12.4 11.2 9.6 83 1.4 NW 6 9 3 5 1025.1 - 0.2
22/12:00pm 11.7 10.5 10.3 91 0.7 N 7 11 4 6 1025.5 1025.6 0.2
22/11:30am 10.3 9.1 10.3 100 0.0 N 7 11 4 6 1025.8 - 0.2
22/11:00am 8.9 7.0 8.9 100 0.0 N 9 13 5 7 1026.3 1026.4 0.2
22/10:30am 7.8 7.3 7.8 100 0.0 CALM 0 0 0 0 1026.4 - 0.2
22/10:00am 5.3 4.2 5.3 100 0.0 CALM 0 0 0 0 1026.4 1026.5 0.2
22/09:30am 3.1 1.6 3.1 100 0.0 CALM 0 0 0 0 1026.3 - 0.2
22/09:00am 1.1 -0.7 1.1 100 0.0 CALM 0 0 0 0 1026.3 1026.4 0.0
22/08:30am 0.5 -1.4 0.5 100 0.0 CALM 0 0 0 0 1026.1 - 0.0
22/08:00am -1.1 -3.2 -1.1 100 0.0 CALM 0 0 0 0 1025.9 1026.0 0.0
22/07:30am -1.3 -3.5 -1.3 100 0.0 CALM 0 0 0 0 1025.8 - 0.0
22/07:00am -1.0 -3.1 -1.0 100 0.0 CALM 0 0 0 0 1025.6 1025.7 0.0
22/06:30am -0.9 -3.0 -0.9 100 0.0 CALM 0 0 0 0 1025.2 - 0.0
22/06:00am -0.4 -2.4 -0.4 100 0.0 CALM 0 0 0 0 1024.9 1025.0 0.0
22/05:30am -0.3 -2.3 -0.3 100 0.0 CALM 0 0 0 0 1024.9 - 0.0
22/05:00am -0.1 -2.1 -0.1 100 0.0 CALM 0 0 0 0 1024.8 1024.9 0.0
22/04:30am 0.3 -1.6 0.3 100 0.0 CALM 0 0 0 0 1024.6 - 0.0
22/04:00am 0.5 -1.4 0.5 100 0.0 CALM 0 0 0 0 1024.4 1024.5 0.0
22/03:30am 0.8 -1.1 0.8 100 0.0 CALM 0 0 0 0 1024.3 - 0.0
22/03:00am 0.7 -1.2 0.7 100 0.0 CALM 0 0 0 0 1024.4 1024.5 0.0
22/02:30am 1.5 -0.3 1.5 100 0.0 CALM 0 0 0 0 1024.5 - 0.0
22/02:00am 1.6 -0.1 1.6 100 0.0 CALM 0 0 0 0 1024.4 1024.5 0.0
22/01:30am 1.9 0.2 1.9 100 0.0 CALM 0 0 0 0 1024.5 - 0.0
22/01:00am 2.6 1.0 2.6 100 0.0 CALM 0 0 0 0 1024.6 1024.7 0.0
22/12:30am 3.0 1.5 3.0 100 0.0 CALM 0 0 0 0 1024.9 - 0.0
22/12:00am 3.0 1.5 3.0 100 0.0 CALM 0 0 0 0 1025.0 1025.1 0.0
 
Date/Time
EST
Temp
°C
App
Temp
°C
Dew
Point
Rel
Hum
%
Delta-T
°C
Wind Press
QNH
hPa
Press
MSL
hPa
Rain
since 9 am
mm
Dir
 
Spd
km/h
Gust
km/h
Spd
kts
Gust
kts
21/11:30pm 3.7 2.3 3.7 100 0.0 CALM 0 0 0 0 1024.9 - 0.0
21/11:00pm 3.7 2.3 3.7 100 0.0 CALM 0 0 0 0 1024.9 1025.0 0.0
21/10:30pm 5.0 3.9 5.0 100 0.0 CALM 0 0 0 0 1024.8 - 0.0
21/10:00pm 5.1 4.0 5.1 100 0.0 CALM 0 0 0 0 1025.0 1025.1 0.0
21/09:30pm 5.4 4.4 5.4 100 0.0 CALM 0 0 0 0 1024.8 - 0.0
21/09:00pm 5.9 5.0 5.9 100 0.0 CALM 0 0 0 0 1024.7 1024.8 0.0
21/08:30pm 6.2 5.3 6.2 100 0.0 CALM 0 0 0 0 1024.5 - 0.0
21/08:00pm 6.9 6.2 6.9 100 0.0 CALM 0 0 0 0 1024.4 1024.5 0.0
21/07:30pm 7.2 6.6 7.2 100 0.0 CALM 0 0 0 0 1024.3 - 0.0
21/07:00pm 7.1 6.4 7.1 100 0.0 CALM 0 0 0 0 1024.1 1024.2 0.0
21/06:30pm 7.5 6.2 7.5 100 0.0 NE 4 6 2 3 1023.7 - 0.0
21/06:00pm 8.6 8.3 8.6 100 0.0 CALM 0 0 0 0 1023.6 1023.7 0.0
21/05:30pm 9.0 8.6 8.4 96 0.3 CALM 0 0 0 0 1023.3 - 0.0
21/05:00pm 10.6 10.0 9.0 90 0.8 ENE 2 4 1 2 1023.2 1023.3 0.0
21/04:30pm 11.6 11.3 8.6 82 1.5 CALM 0 0 0 0 1023.1 - 0.0
21/04:00pm 11.8 11.4 8.1 78 1.8 CALM 0 0 0 0 1023.2 1023.3 0.0
21/03:30pm 12.0 10.5 8.5 79 1.7 NNW 6 9 3 5 1023.2 - 0.0
21/03:00pm 12.5 11.1 9.0 79 1.8 N 6 9 3 5 1023.1 1023.2 0.0
21/02:30pm 11.7 10.0 8.4 80 1.6 N 7 11 4 6 1023.2 - 0.0
21/02:00pm 12.1 10.5 8.8 80 1.6 NNW 7 13 4 7 1023.3 1023.4 0.0
21/01:30pm 11.5 9.9 8.9 84 1.3 N 7 13 4 7 1023.6 - 0.0
21/01:00pm 10.8 9.4 9.4 91 0.7 N 7 15 4 8 1023.9 1024.0 0.0
21/12:30pm 10.2 8.9 10.1 99 0.1 N 7 13 4 7 1024.4 - 0.0
21/12:00pm 9.4 8.0 9.4 100 0.0 N 7 15 4 8 1024.8 1024.9 0.0
21/11:30am 9.1 6.4 9.1 100 0.0 N 13 20 7 11 1025.3 - 0.0
21/11:00am 8.6 6.6 8.6 100 0.0 NNE 9 15 5 8 1025.5 1025.6 0.0
21/10:30am 7.7 7.2 7.7 100 0.0 CALM 0 0 0 0 1025.6 - 0.0
21/10:00am 6.1 5.2 6.1 100 0.0 CALM 0 0 0 0 1025.6 1025.7 0.0
21/09:30am 4.9 3.8 4.9 100 0.0 CALM 0 0 0 0 1025.7 - 0.0
21/09:00am 3.4 2.0 3.4 100 0.0 CALM 0 0 0 0 1025.7 1025.8 0.0
21/08:30am 3.0 1.5 3.0 100 0.0 CALM 0 0 0 0 1025.5 - 0.0
21/08:00am 2.5 0.9 2.5 100 0.0 CALM 0 0 0 0 1025.3 1025.4 0.0
21/07:30am 2.4 0.8 2.4 100 0.0 CALM 0 0 0 0 1025.2 - 0.0
21/07:00am 2.0 0.3 2.0 100 0.0 CALM 0 0 0 0 1025.0 1025.1 0.0
21/06:30am 1.4 -0.4 1.4 100 0.0 CALM 0 0 0 0 1024.7 - 0.0
21/06:00am 1.5 -0.3 1.5 100 0.0 CALM 0 0 0 0 1024.7 1024.8 0.0
21/05:30am 1.5 -0.3 1.5 100 0.0 CALM 0 0 0 0 1024.9 - 0.0
21/05:00am 1.1 -0.7 1.1 100 0.0 CALM 0 0 0 0 1024.8 1024.9 0.0
21/04:30am 1.3 -0.5 1.3 100 0.0 CALM 0 0 0 0 1024.8 - 0.0
21/04:00am 1.6 -0.1 1.6 100 0.0 CALM 0 0 0 0 1024.8 1024.9 0.0
21/03:30am 2.2 0.6 2.2 100 0.0 CALM 0 0 0 0 1025.0 - 0.0
21/03:00am 2.5 0.9 2.5 100 0.0 CALM 0 0 0 0 1025.2 1025.3 0.0
21/02:30am 2.1 -0.3 2.1 100 0.0 ENE 4 6 2 3 1025.4 - 0.0
21/02:00am 2.4 0.0 2.4 100 0.0 E 4 6 2 3 1025.4 1025.5 0.0
21/01:30am 3.1 1.6 3.1 100 0.0 CALM 0 0 0 0 1025.7 - 0.0
21/01:00am 2.5 0.9 2.5 100 0.0 CALM 0 0 0 0 1025.9 1026.0 0.0
21/12:30am 2.6 1.0 2.6 100 0.0 CALM 0 0 0 0 1026.2 - 0.0
21/12:00am 3.1 1.6 3.1 100 0.0 CALM 0 0 0 0 1026.3 1026.4 0.0
 
Date/Time
EST
Temp
°C
App
Temp
°C
Dew
Point
Rel
Hum
%
Delta-T
°C
Wind Press
QNH
hPa
Press
MSL
hPa
Rain
since 9 am
mm
Dir
 
Spd
km/h
Gust
km/h
Spd
kts
Gust
kts
20/11:30pm 3.2 1.7 3.2 100 0.0 CALM 0 0 0 0 1026.4 - 0.0
20/11:00pm 3.3 1.9 3.3 100 0.0 CALM 0 0 0 0 1026.4 1026.5 0.0
20/10:30pm 3.9 2.6 3.9 100 0.0 CALM 0 0 0 0 1026.3 - 0.0
20/10:00pm 4.5 3.3 4.5 100 0.0 CALM 0 0 0 0 1026.4 1026.5 0.0
20/09:30pm 4.6 3.4 4.6 100 0.0 CALM 0 0 0 0 1026.5 - 0.0
20/09:00pm 5.3 4.2 5.3 100 0.0 CALM 0 0 0 0 1026.6 1026.7 0.0
20/08:30pm 5.9 5.0 5.9 100 0.0 CALM 0 0 0 0 1026.7 - 0.0
20/08:00pm 6.4 4.8 6.4 100 0.0 N 4 6 2 3 1026.7 1026.8 0.0
20/07:30pm 7.3 5.5 7.3 100 0.0 NNE 6 7 3 4 1026.5 - 0.0
20/07:00pm 7.6 5.9 7.6 100 0.0 NE 6 7 3 4 1026.3 1026.4 0.0
20/06:30pm 8.4 6.7 8.3 99 0.0 NE 7 7 4 4 1026.3 - 0.0
20/06:00pm 9.2 7.7 8.6 96 0.3 NE 6 7 3 4 1026.2 1026.3 0.0
20/05:30pm 10.1 8.5 8.9 92 0.6 NNE 7 13 4 7 1026.2 - 0.0
20/05:00pm 10.8 9.3 9.1 89 0.8 NE 7 13 4 7 1026.1 1026.2 0.0
20/04:30pm 11.5 9.7 9.4 87 1.1 NE 9 11 5 6 1026.1 - 0.0
20/04:00pm 11.8 11.0 9.7 87 1.1 NNE 4 6 2 3 1026.2 1026.3 0.0

Other Formats:

Comma delimited format used in spreadsheet applications
http://www.bom.gov.au/fwo/IDV60801/IDV60801.95822.axf

JavaScript Object Notation format (JSON) in row-major order
http://www.bom.gov.au/fwo/IDV60801/IDV60801.95822.json